createdAt,value
2023-01-06T00:01:11.355Z,98998.28
2023-01-06T00:03:37.816Z,98988.28
2023-01-06T00:06:06.336Z,98992.94
2023-01-06T00:08:35.180Z,98981.38
2023-01-06T00:11:09.685Z,98982.81
2023-01-06T00:13:36.725Z,98972.38
2023-01-06T00:16:15.045Z,98981.84
2023-01-06T00:18:42.107Z,98969.47
2023-01-06T00:21:09.848Z,98972.81
2023-01-06T00:23:37.478Z,98972.28
2023-01-06T00:26:05.543Z,98965.19
2023-01-06T00:28:34.619Z,98966.91
2023-01-06T00:31:10.634Z,98967.75
2023-01-06T00:33:39.144Z,98969.28
2023-01-06T00:36:08.222Z,98967.81
2023-01-06T00:38:36.856Z,98968.00
2023-01-06T00:41:30.651Z,98966.00
2023-01-06T00:43:58.269Z,98965.91
2023-01-06T00:46:29.219Z,98959.72
2023-01-06T00:49:06.619Z,98959.63
2023-01-06T00:51:36.371Z,98959.44
2023-01-06T00:54:03.185Z,98963.53
2023-01-06T00:56:29.679Z,98974.47
2023-01-06T00:58:56.147Z,98979.56
2023-01-06T01:01:24.250Z,98977.19
2023-01-06T01:03:50.858Z,98978.75
2023-01-06T01:06:17.684Z,98980.72
2023-01-06T01:08:44.221Z,98978.47
2023-01-06T01:11:32.466Z,98969.81
2023-01-06T01:13:58.941Z,98981.47
2023-01-06T01:16:25.404Z,98978.53
2023-01-06T01:18:52.024Z,98978.09
2023-01-06T01:21:18.488Z,98976.06
2023-01-06T01:23:44.936Z,98976.97
2023-01-06T01:26:12.269Z,98968.59
2023-01-06T01:28:40.105Z,98979.59
2023-01-06T01:31:06.670Z,98982.50
2023-01-06T01:33:33.197Z,98978.78
2023-01-06T01:36:06.782Z,98982.22
2023-01-06T01:38:33.265Z,98989.47
2023-01-06T01:40:59.757Z,98988.53
2023-01-06T01:43:26.251Z,98996.22
2023-01-06T01:45:55.729Z,98995.09
2023-01-06T01:48:33.993Z,98994.81
2023-01-06T01:51:04.754Z,98995.00
2023-01-06T01:53:40.933Z,98982.44
2023-01-06T01:56:11.975Z,98988.59
2023-01-06T01:58:48.821Z,98991.44
2023-01-06T02:01:15.384Z,98979.00
2023-01-06T02:03:42.717Z,98986.91
2023-01-06T02:06:14.074Z,98986.09
2023-01-06T02:08:47.661Z,98987.78
2023-01-06T02:11:14.164Z,98992.53
2023-01-06T02:13:43.536Z,98989.59
2023-01-06T02:16:38.921Z,98986.50
2023-01-06T02:19:30.311Z,98982.28
2023-01-06T02:22:12.086Z,98987.63
2023-01-06T02:25:10.444Z,98990.50
2023-01-06T02:28:11.942Z,98983.78
2023-01-06T02:31:16.377Z,98989.66
2023-01-06T02:34:21.878Z,98977.72
2023-01-06T02:37:26.927Z,98973.03
2023-01-06T02:40:22.084Z,98974.84
2023-01-06T02:43:10.271Z,98971.19
2023-01-06T02:45:52.333Z,98968.19
2023-01-06T02:48:33.608Z,98967.66
2023-01-06T02:51:04.474Z,98966.66
2023-01-06T02:53:52.045Z,98958.38
2023-01-06T02:56:24.423Z,98962.84
2023-01-06T02:59:07.157Z,98956.88
2023-01-06T03:01:39.798Z,98958.03
2023-01-06T03:04:11.116Z,98955.00
2023-01-06T03:06:44.716Z,98959.22
2023-01-06T03:09:16.401Z,98949.91
2023-01-06T03:11:48.215Z,98946.53
2023-01-06T03:14:23.069Z,98951.44
2023-01-06T03:16:49.679Z,98947.34
2023-01-06T03:19:17.253Z,98949.69
2023-01-06T03:21:47.555Z,98946.00
2023-01-06T03:24:14.611Z,98943.53
2023-01-06T03:26:44.279Z,98952.41
2023-01-06T03:29:15.251Z,98948.28
2023-01-06T03:32:20.795Z,98948.97
2023-01-06T03:35:04.978Z,98946.88
2023-01-06T03:37:44.213Z,98948.50
2023-01-06T03:40:22.491Z,98948.16
2023-01-06T03:43:11.946Z,98946.63
2023-01-06T03:46:02.295Z,98946.31
2023-01-06T03:48:47.980Z,98939.75
2023-01-06T03:51:29.400Z,98940.19
2023-01-06T03:54:05.616Z,98940.19
2023-01-06T03:56:39.382Z,98931.34
2023-01-06T03:59:13.439Z,98930.03
2023-01-06T04:01:45.214Z,98926.13
2023-01-06T04:04:13.430Z,98910.25
2023-01-06T04:06:40.418Z,98913.69
2023-01-06T04:09:06.894Z,98917.84
2023-01-06T04:11:54.642Z,98913.53
2023-01-06T04:14:21.152Z,98921.59
2023-01-06T04:16:47.827Z,98920.78
2023-01-06T04:19:14.370Z,98915.66
2023-01-06T04:21:40.846Z,98910.94
2023-01-06T04:24:07.850Z,98915.09
2023-01-06T04:26:35.644Z,98913.22
2023-01-06T04:29:02.694Z,98905.63
2023-01-06T04:31:29.631Z,98906.59
2023-01-06T04:33:57.622Z,98903.13
2023-01-06T04:36:24.144Z,98901.53
2023-01-06T04:38:53.688Z,98906.94
2023-01-06T04:41:20.399Z,98894.59
2023-01-06T04:43:46.850Z,98899.88
2023-01-06T04:46:13.342Z,98892.13
2023-01-06T04:48:39.937Z,98891.50
2023-01-06T04:51:08.953Z,98895.44
2023-01-06T04:53:40.564Z,98893.97
2023-01-06T04:56:09.626Z,98908.44
2023-01-06T04:58:36.947Z,98906.94
2023-01-06T05:01:10.039Z,98896.06
2023-01-06T05:03:36.923Z,98904.44
2023-01-06T05:06:05.721Z,98905.13
2023-01-06T05:08:32.348Z,98901.50
2023-01-06T05:11:00.396Z,98907.44
2023-01-06T05:13:27.171Z,98903.69
2023-01-06T05:15:53.658Z,98913.41
2023-01-06T05:18:20.111Z,98914.53
2023-01-06T05:20:53.580Z,98918.28
2023-01-06T05:23:21.015Z,98921.28
2023-01-06T05:25:49.900Z,98922.44
2023-01-06T05:28:16.458Z,98920.84
2023-01-06T05:30:42.969Z,98918.69
2023-01-06T05:33:09.443Z,98923.09
2023-01-06T05:35:36.028Z,98923.00
2023-01-06T05:38:02.580Z,98916.78
2023-01-06T05:40:29.659Z,98926.41
2023-01-06T05:42:57.667Z,98930.03
2023-01-06T05:45:24.969Z,98942.63
2023-01-06T05:47:52.093Z,98938.03
2023-01-06T05:50:18.661Z,98940.53
2023-01-06T05:52:45.095Z,98943.16
2023-01-06T05:55:11.643Z,98938.78
2023-01-06T05:57:38.087Z,98930.72
2023-01-06T06:00:06.319Z,98937.31
2023-01-06T06:02:38.574Z,98939.75
2023-01-06T06:05:05.443Z,98944.34
2023-01-06T06:07:31.896Z,98934.50
2023-01-06T06:09:58.367Z,98939.13
2023-01-06T06:12:24.813Z,98940.19
2023-01-06T06:14:51.239Z,98946.63
2023-01-06T06:17:17.715Z,98945.13
2023-01-06T06:19:44.272Z,98947.94
2023-01-06T06:22:10.933Z,98941.16
2023-01-06T06:24:37.469Z,98937.28
2023-01-06T06:27:04.326Z,98926.78
2023-01-06T06:29:30.775Z,98935.78
2023-01-06T06:31:57.223Z,98953.88
2023-01-06T06:34:24.019Z,98954.00
2023-01-06T06:36:50.515Z,98941.06
2023-01-06T06:39:17.145Z,98942.53
2023-01-06T06:41:43.603Z,98937.59
2023-01-06T06:44:10.234Z,98945.97
2023-01-06T06:46:36.808Z,98944.38
2023-01-06T06:49:03.291Z,98943.91
2023-01-06T06:51:30.033Z,98946.31
2023-01-06T06:53:56.472Z,98958.16
2023-01-06T06:56:23.231Z,98956.34
2023-01-06T06:58:49.884Z,98955.53
2023-01-06T07:01:19.042Z,98953.09
2023-01-06T07:03:46.106Z,98957.84
2023-01-06T07:06:22.877Z,98966.72
2023-01-06T07:08:50.125Z,98964.75
2023-01-06T07:11:17.159Z,98969.06
2023-01-06T07:13:43.737Z,98963.63
2023-01-06T07:16:10.670Z,98967.75
2023-01-06T07:18:37.512Z,98966.00
2023-01-06T07:21:04.301Z,98971.16
2023-01-06T07:23:30.742Z,98967.72
2023-01-06T07:26:00.460Z,98972.63
2023-01-06T07:28:28.458Z,98972.50
2023-01-06T07:30:55.033Z,98961.78
2023-01-06T07:33:22.372Z,98963.75
2023-01-06T07:35:53.710Z,98971.31
2023-01-06T07:38:20.474Z,98977.25
2023-01-06T07:40:47.038Z,98972.47
2023-01-06T07:43:13.651Z,98990.56
2023-01-06T07:45:40.136Z,98994.19
2023-01-06T07:48:06.781Z,99000.09
2023-01-06T07:50:33.542Z,98994.47
2023-01-06T07:53:01.428Z,98990.38
2023-01-06T07:55:28.181Z,98996.28
2023-01-06T07:57:54.738Z,98999.59
2023-01-06T08:00:21.574Z,99001.69
2023-01-06T08:02:49.115Z,99005.47
2023-01-06T08:05:16.025Z,99013.53
2023-01-06T08:07:42.558Z,99020.28
2023-01-06T08:10:09.341Z,99029.94
2023-01-06T08:12:37.037Z,99029.78
2023-01-06T08:15:04.563Z,99026.66
2023-01-06T08:17:31.340Z,99017.47
2023-01-06T08:19:57.797Z,99013.50
2023-01-06T08:22:24.443Z,99008.78
2023-01-06T08:24:50.896Z,99011.75
2023-01-06T08:27:18.039Z,99019.44
2023-01-06T08:29:44.500Z,99011.13
2023-01-06T08:32:11.249Z,99019.81
2023-01-06T08:34:40.749Z,99015.09
2023-01-06T08:37:09.760Z,99017.63
2023-01-06T08:39:38.803Z,99015.94
2023-01-06T08:42:12.289Z,99011.34
2023-01-06T08:44:41.840Z,99012.38
2023-01-06T08:47:20.925Z,99001.69
2023-01-06T08:49:57.504Z,98999.88
2023-01-06T08:52:24.540Z,98990.88
2023-01-06T08:55:03.293Z,98985.69
2023-01-06T08:57:29.911Z,98988.50
2023-01-06T08:59:56.387Z,98988.00
2023-01-06T09:02:22.864Z,98984.03
2023-01-06T09:04:49.487Z,98980.09
2023-01-06T09:07:15.963Z,98990.25
2023-01-06T09:09:42.419Z,98979.69
2023-01-06T09:12:08.921Z,98985.41
2023-01-06T09:14:35.405Z,98987.69
2023-01-06T09:17:01.956Z,98992.16
2023-01-06T09:19:28.419Z,98990.78
2023-01-06T09:21:54.871Z,98996.44
2023-01-06T09:24:21.794Z,99002.13
2023-01-06T09:26:48.252Z,98994.41
2023-01-06T09:29:14.816Z,98989.78
2023-01-06T09:31:41.267Z,98993.88
2023-01-06T09:34:07.775Z,99008.03
2023-01-06T09:36:34.609Z,99002.78
2023-01-06T09:39:01.178Z,99010.16
2023-01-06T09:41:35.619Z,99013.31
2023-01-06T09:44:11.751Z,99028.41
2023-01-06T09:46:42.080Z,99024.13
2023-01-06T09:49:28.890Z,99027.31
2023-01-06T09:52:04.352Z,99024.97
2023-01-06T09:54:41.112Z,99031.03
2023-01-06T09:57:15.888Z,99038.94
2023-01-06T09:59:55.991Z,99031.38
2023-01-06T10:02:31.864Z,99030.78
2023-01-06T10:04:58.608Z,99029.53
2023-01-06T10:07:46.039Z,99033.28
2023-01-06T10:10:55.505Z,99041.72
2023-01-06T10:13:29.624Z,99037.59
2023-01-06T10:16:16.392Z,99043.19
2023-01-06T10:18:59.263Z,99042.34
2023-01-06T10:21:30.901Z,99047.66
2023-01-06T10:24:10.678Z,99040.81
2023-01-06T10:26:54.242Z,99035.97
2023-01-06T10:29:21.799Z,99035.00
2023-01-06T10:31:51.413Z,99022.59
2023-01-06T10:34:22.353Z,99025.56
2023-01-06T10:36:56.754Z,99030.50
2023-01-06T10:39:27.275Z,99037.00
2023-01-06T10:42:44.923Z,99029.97
2023-01-06T10:45:15.113Z,99037.81
2023-01-06T10:47:43.503Z,99040.28
2023-01-06T10:50:15.564Z,99040.97
2023-01-06T10:52:43.035Z,99043.16
2023-01-06T10:55:36.385Z,99036.25
2023-01-06T10:58:13.187Z,99040.34
2023-01-06T11:05:05.688Z,99033.47
2023-01-06T11:07:33.275Z,99037.59
2023-01-06T11:10:00.488Z,99038.06
2023-01-06T11:12:29.737Z,99018.50
2023-01-06T11:15:00.668Z,99014.25
2023-01-06T11:17:29.035Z,99016.75
2023-01-06T11:20:07.324Z,99004.91
2023-01-06T11:22:35.358Z,99003.16
2023-01-06T11:25:03.091Z,98992.59
2023-01-06T11:27:29.572Z,98990.91
2023-01-06T11:29:56.039Z,98994.44
2023-01-06T11:32:26.880Z,98993.25
2023-01-06T11:35:04.689Z,99000.47
2023-01-06T11:37:32.633Z,98993.19
2023-01-06T11:40:05.636Z,98989.25
2023-01-06T11:42:39.405Z,98997.34
2023-01-06T11:45:06.648Z,98990.16
2023-01-06T11:47:34.521Z,98997.41
2023-01-06T11:50:01.827Z,98991.78
2023-01-06T11:52:32.913Z,98984.59
2023-01-06T11:55:08.458Z,98989.88
2023-01-06T11:57:48.763Z,98984.00
2023-01-06T12:00:37.138Z,98983.47
2023-01-06T12:03:32.863Z,98979.66
2023-01-06T12:06:12.924Z,98977.44
2023-01-06T12:08:54.744Z,98972.78
2023-01-06T12:11:32.483Z,98967.22
2023-01-06T12:14:13.288Z,98967.59
2023-01-06T12:16:54.670Z,98965.28
2023-01-06T12:19:39.206Z,98964.50
2023-01-06T12:22:12.303Z,98950.88
2023-01-06T12:24:39.812Z,98964.28
2023-01-06T12:27:07.234Z,98960.44
2023-01-06T12:29:34.801Z,98962.09
2023-01-06T12:32:28.951Z,98957.59
2023-01-06T12:35:01.868Z,98967.75
2023-01-06T12:37:38.036Z,98963.09
2023-01-06T12:40:20.011Z,98962.56
2023-01-06T12:42:59.796Z,98961.94
2023-01-06T12:45:37.852Z,98960.50
2023-01-06T12:48:17.641Z,98965.50
2023-01-06T12:50:54.053Z,98954.19
2023-01-06T12:53:30.960Z,98963.47
2023-01-06T12:56:12.598Z,98969.56
2023-01-06T12:59:14.305Z,98963.03
2023-01-06T13:02:25.892Z,98959.72
2023-01-06T13:05:20.237Z,98963.75
2023-01-06T13:08:07.439Z,98953.84
2023-01-06T13:10:41.471Z,98960.06
2023-01-06T13:13:26.148Z,98957.75
2023-01-06T13:15:54.899Z,98962.25
2023-01-06T13:18:31.320Z,98962.00
2023-01-06T13:21:18.440Z,98963.09
2023-01-06T13:23:58.358Z,98968.38
2023-01-06T13:26:34.061Z,98968.38
2023-01-06T13:29:22.893Z,98958.91
2023-01-06T13:32:00.943Z,98968.63
2023-01-06T13:34:47.734Z,98963.91
2023-01-06T13:37:39.044Z,98970.22
2023-01-06T13:40:16.431Z,98971.63
2023-01-06T13:43:12.910Z,98967.78
2023-01-06T13:45:46.395Z,98961.88
2023-01-06T13:48:19.776Z,98964.66
2023-01-06T13:50:46.954Z,98971.88
2023-01-06T13:53:17.375Z,98967.91
2023-01-06T13:55:44.384Z,98964.72
2023-01-06T13:58:23.157Z,98968.19
2023-01-06T14:01:12.715Z,98964.66
2023-01-06T14:03:43.434Z,98970.13
2023-01-06T14:06:32.322Z,98963.56
2023-01-06T14:09:01.013Z,98970.22
2023-01-06T14:11:33.605Z,98966.59
2023-01-06T14:14:03.615Z,98966.81
2023-01-06T14:16:39.280Z,98972.09
2023-01-06T14:19:08.442Z,98972.56
2023-01-06T14:21:35.446Z,98968.56
2023-01-06T14:24:07.980Z,98968.19
2023-01-06T14:26:54.575Z,98961.47
2023-01-06T14:29:39.603Z,98965.47
2023-01-06T14:32:34.537Z,98965.19
2023-01-06T14:35:11.707Z,98964.09
2023-01-06T14:37:43.695Z,98960.28
2023-01-06T14:40:31.283Z,98968.69
2023-01-06T14:43:01.306Z,98975.38
2023-01-06T14:45:38.432Z,98972.34
2023-01-06T14:48:13.259Z,98971.75
2023-01-06T14:50:47.269Z,98964.44
2023-01-06T14:53:35.679Z,98964.72
2023-01-06T14:56:03.529Z,98970.81
2023-01-06T14:58:37.031Z,98969.53
2023-01-06T15:01:05.735Z,98968.69
2023-01-06T15:03:33.474Z,98977.28
2023-01-06T15:06:23.063Z,98970.72
2023-01-06T15:08:50.237Z,98976.19
2023-01-06T15:11:24.430Z,98979.59
2023-01-06T15:13:51.027Z,98976.50
2023-01-06T15:16:31.648Z,98975.84
2023-01-06T15:18:59.539Z,98969.53
2023-01-06T15:21:26.333Z,98969.81
2023-01-06T15:23:55.176Z,98971.44
2023-01-06T15:26:27.616Z,98965.06
2023-01-06T15:29:14.002Z,98961.09
2023-01-06T15:31:41.099Z,98962.75
2023-01-06T15:34:16.005Z,98965.44
2023-01-06T15:36:44.299Z,98967.44
2023-01-06T15:39:16.633Z,98979.31
2023-01-06T15:41:43.992Z,98984.72
2023-01-06T15:44:22.785Z,98985.72
2023-01-06T15:46:52.732Z,98981.38
2023-01-06T15:49:29.684Z,98981.94
2023-01-06T15:52:01.337Z,98977.56
2023-01-06T15:54:29.803Z,98982.47
2023-01-06T15:56:58.544Z,98983.00
2023-01-06T15:59:26.849Z,98980.59
2023-01-06T16:01:55.099Z,98981.34
2023-01-06T16:04:23.285Z,98988.47
2023-01-06T16:06:50.044Z,98978.34
2023-01-06T16:09:19.653Z,98980.84
2023-01-06T16:12:14.740Z,98982.66
2023-01-06T16:14:46.054Z,98978.75
2023-01-06T16:17:14.516Z,98988.09
2023-01-06T16:19:59.897Z,98980.72
2023-01-06T16:22:34.550Z,98978.66
2023-01-06T16:25:21.631Z,98989.69
2023-01-06T16:27:50.503Z,98982.25
2023-01-06T16:30:22.841Z,98984.00
2023-01-06T16:32:52.399Z,98979.06
2023-01-06T16:35:21.922Z,98977.75
2023-01-06T16:37:48.799Z,98977.00
2023-01-06T16:40:16.912Z,98979.16
2023-01-06T16:42:44.648Z,98977.00
2023-01-06T16:45:35.155Z,98976.63
2023-01-06T16:48:01.650Z,98966.09
2023-01-06T16:50:34.405Z,98961.75
2023-01-06T16:53:07.611Z,98960.75
2023-01-06T16:55:34.278Z,98963.44
2023-01-06T16:58:01.530Z,98965.91
2023-01-06T17:00:30.098Z,98970.03
2023-01-06T17:02:57.739Z,98964.63
2023-01-06T17:05:29.519Z,98965.25
2023-01-06T17:08:01.680Z,98959.97
2023-01-06T17:10:29.315Z,98970.00
2023-01-06T17:13:20.371Z,98960.84
2023-01-06T17:15:51.719Z,98963.75
2023-01-06T17:18:29.808Z,98955.84
2023-01-06T17:21:11.892Z,98958.19
2023-01-06T17:23:50.817Z,98957.06
2023-01-06T17:26:19.468Z,98962.63
2023-01-06T17:28:47.677Z,98964.38
2023-01-06T17:31:36.312Z,98967.03
2023-01-06T17:34:17.028Z,98970.38
2023-01-06T17:36:46.373Z,98968.88
2023-01-06T17:39:20.042Z,98967.84
2023-01-06T17:41:46.608Z,98968.88
2023-01-06T17:44:16.771Z,98977.38
2023-01-06T17:46:44.176Z,98974.28
2023-01-06T17:49:19.968Z,98975.69
2023-01-06T17:51:48.470Z,98969.69
2023-01-06T17:54:37.755Z,98967.25
2023-01-06T17:57:31.533Z,98969.75
2023-01-06T17:59:58.218Z,98975.84
2023-01-06T18:02:46.675Z,98984.44
2023-01-06T18:05:21.949Z,98970.94
2023-01-06T18:07:48.404Z,98975.53
2023-01-06T18:10:17.444Z,98977.84
2023-01-06T18:12:44.197Z,98974.09
2023-01-06T18:15:30.921Z,98981.50
2023-01-06T18:17:58.382Z,98979.69
2023-01-06T18:20:24.869Z,98981.28
2023-01-06T18:22:51.471Z,98981.63
2023-01-06T18:25:24.431Z,98987.38
2023-01-06T18:27:51.359Z,98987.94
2023-01-06T18:30:23.935Z,98990.56
2023-01-06T18:32:51.549Z,98986.81
2023-01-06T18:35:28.631Z,98987.25
2023-01-06T18:38:00.171Z,98983.47
2023-01-06T18:40:26.837Z,98987.69
2023-01-06T18:42:54.979Z,98982.97
2023-01-06T18:45:35.763Z,98982.06
2023-01-06T18:48:14.563Z,98988.97
2023-01-06T18:50:43.994Z,98993.66
2023-01-06T18:53:13.371Z,98994.38
2023-01-06T18:55:45.629Z,99002.63
2023-01-06T18:58:11.997Z,98998.72
2023-01-06T19:00:42.497Z,98997.03
2023-01-06T19:03:22.938Z,99004.06
2023-01-06T19:05:49.441Z,99008.50
2023-01-06T19:08:19.931Z,99007.78
2023-01-06T19:10:50.042Z,99006.84
2023-01-06T19:13:23.125Z,98998.78
2023-01-06T19:15:50.171Z,98995.50
2023-01-06T19:18:18.235Z,98994.16
2023-01-06T19:20:46.362Z,99003.06
2023-01-06T19:23:21.249Z,99006.84
2023-01-06T19:25:50.405Z,98998.97
2023-01-06T19:28:20.837Z,99000.22
2023-01-06T19:30:53.686Z,98999.47
2023-01-06T19:33:25.982Z,98995.69
2023-01-06T19:36:05.802Z,98992.56
2023-01-06T19:38:39.601Z,98995.78
2023-01-06T19:41:28.616Z,98999.41
2023-01-06T19:44:09.845Z,98991.66
2023-01-06T19:46:45.189Z,98988.75
2023-01-06T19:49:30.624Z,98997.47
2023-01-06T19:51:57.308Z,98989.31
2023-01-06T19:54:36.563Z,98992.94
2023-01-06T19:57:15.410Z,98987.19
2023-01-06T19:59:41.925Z,98981.72
2023-01-06T20:02:08.373Z,98987.97
2023-01-06T20:04:35.549Z,98985.00
2023-01-06T20:07:02.780Z,98987.81
2023-01-06T20:09:30.558Z,98991.94
2023-01-06T20:11:58.385Z,98983.50
2023-01-06T20:14:24.880Z,98990.41
2023-01-06T20:16:51.399Z,98989.28
2023-01-06T20:19:17.859Z,98993.66
2023-01-06T20:21:44.342Z,98990.44
2023-01-06T20:24:11.101Z,98984.03
2023-01-06T20:26:37.662Z,98977.44
2023-01-06T20:29:04.669Z,98981.88
2023-01-06T20:31:31.668Z,98980.03
2023-01-06T20:33:58.843Z,98981.06
2023-01-06T20:36:25.466Z,98972.47
2023-01-06T20:38:51.931Z,98971.97
2023-01-06T20:41:18.549Z,98969.63
2023-01-06T20:43:45.056Z,98974.75
2023-01-06T20:46:11.637Z,98973.59
2023-01-06T20:48:38.101Z,98970.16
2023-01-06T20:51:04.680Z,98967.84
2023-01-06T20:53:31.201Z,98965.75
2023-01-06T20:55:57.753Z,98970.97
2023-01-06T20:58:24.429Z,98965.03
2023-01-06T21:00:51.016Z,98966.34
2023-01-06T21:03:17.668Z,98964.66
2023-01-06T21:05:44.559Z,98967.69
2023-01-06T21:08:11.030Z,98962.25
2023-01-06T21:10:38.737Z,98960.03
2023-01-06T21:13:05.985Z,98959.16
2023-01-06T21:15:32.471Z,98954.03
2023-01-06T21:17:58.930Z,98957.53
2023-01-06T21:20:25.441Z,98959.31
2023-01-06T21:22:51.884Z,98959.16
2023-01-06T21:25:19.690Z,98954.03
2023-01-06T21:27:46.171Z,98958.19
2023-01-06T21:30:13.060Z,98958.97
2023-01-06T21:32:39.567Z,98962.41
2023-01-06T21:35:06.153Z,98956.16
2023-01-06T21:37:32.664Z,98953.66
2023-01-06T21:39:59.193Z,98956.47
2023-01-06T21:42:44.275Z,98948.19
2023-01-06T21:45:11.362Z,98952.88
2023-01-06T21:47:37.817Z,98952.53
2023-01-06T21:50:05.413Z,98952.50
2023-01-06T21:52:32.044Z,98954.44
2023-01-06T21:54:59.101Z,98953.94
2023-01-06T21:57:25.728Z,98962.41
2023-01-06T21:59:52.209Z,98958.19
2023-01-06T22:02:18.878Z,98947.75
2023-01-06T22:04:45.374Z,98950.25
2023-01-06T22:07:13.970Z,98946.53
2023-01-06T22:09:42.333Z,98951.16
2023-01-06T22:12:13.129Z,98941.94
2023-01-06T22:14:40.018Z,98939.50
2023-01-06T22:17:07.409Z,98944.28
2023-01-06T22:19:34.547Z,98944.91
2023-01-06T22:22:02.174Z,98942.50
2023-01-06T22:24:31.765Z,98944.22
2023-01-06T22:26:58.314Z,98942.53
2023-01-06T22:29:24.810Z,98943.47
2023-01-06T22:31:51.344Z,98946.03
2023-01-06T22:34:17.767Z,98937.28
2023-01-06T22:36:44.240Z,98942.88
2023-01-06T22:39:10.676Z,98944.97
2023-01-06T22:41:37.125Z,98942.91
2023-01-06T22:44:03.607Z,98943.03
2023-01-06T22:46:30.523Z,98947.88
2023-01-06T22:48:57.861Z,98948.47
2023-01-06T22:51:24.416Z,98956.22
2023-01-06T22:53:51.822Z,98961.38
2023-01-06T22:56:18.319Z,98958.91
2023-01-06T22:58:44.787Z,98952.25
2023-01-06T23:01:11.703Z,98961.13
2023-01-06T23:03:38.337Z,98963.66
2023-01-06T23:06:10.855Z,98966.09
2023-01-06T23:08:48.081Z,98959.31
2023-01-06T23:11:22.428Z,98963.44
2023-01-06T23:13:48.930Z,98957.72
2023-01-06T23:16:18.961Z,98955.38
2023-01-06T23:18:48.094Z,98957.19
2023-01-06T23:21:21.697Z,98952.06
2023-01-06T23:23:49.506Z,98950.44
2023-01-06T23:26:34.699Z,98949.28
2023-01-06T23:29:01.206Z,98943.50
2023-01-06T23:31:30.770Z,98943.59
2023-01-06T23:34:00.227Z,98942.56
2023-01-06T23:36:28.195Z,98940.91
2023-01-06T23:38:55.832Z,98935.16
2023-01-06T23:41:24.379Z,98933.00
2023-01-06T23:43:51.956Z,98936.31
2023-01-06T23:46:30.801Z,98941.13
2023-01-06T23:48:57.820Z,98930.22
2023-01-06T23:51:25.251Z,98928.47
2023-01-06T23:53:52.912Z,98912.47
2023-01-06T23:56:22.346Z,98916.75
2023-01-06T23:58:51.746Z,98917.75
